Time;durP1;ratioP1;P1;durP2;ratioP2;P2;SDS_P1;SDS_P2;PMS_P1;PMS_P2;Temp;Humidity;BMP_temperature;BMP_pressure;BME280_temperature;BME280_humidity;BME280_pressure;Samples;Min_cycle;Max_cycle;Signal;HPM_P1;HPM_P2
2021/12/28 00:00:22;;;;;;;2.13;1.10;;;8.50;99.90;;;;;;5001831;28;20171;-63
2021/12/28 00:02:49;;;;;;;2.38;1.50;;;8.50;99.90;;;;;;4999799;28;20653;-66
2021/12/28 00:05:26;;;;;;;1.13;0.73;;;8.40;99.90;;;;;;5096814;28;20566;-65
2021/12/28 00:07:52;;;;;;;0.63;0.63;;;8.40;99.90;;;;;;5096836;28;20580;-67
2021/12/28 00:10:19;;;;;;;1.53;0.63;;;8.30;99.90;;;;;;5096825;28;20183;-63
2021/12/28 00:12:46;;;;;;;0.70;0.68;;;8.30;99.90;;;;;;5095747;28;20406;-65
2021/12/28 00:15:31;;;;;;;1.27;1.27;;;8.30;99.90;;;;;;5094549;28;20179;-64
2021/12/28 00:18:01;;;;;;;3.92;2.15;;;8.30;99.90;;;;;;5093851;28;20202;-64
2021/12/28 00:20:36;;;;;;;0.90;0.90;;;8.30;99.90;;;;;;5092967;28;20232;-64
2021/12/28 00:23:05;;;;;;;1.98;0.95;;;8.30;99.90;;;;;;5091557;28;20171;-62
2021/12/28 00:25:31;;;;;;;5.05;1.80;;;8.20;99.90;;;;;;5092155;28;20225;-64
2021/12/28 00:27:57;;;;;;;1.70;1.37;;;8.30;99.90;;;;;;5091064;28;20652;-63
2021/12/28 00:30:23;;;;;;;1.45;1.27;;;8.20;99.90;;;;;;5090992;28;20510;-65
2021/12/28 00:32:52;;;;;;;0.87;0.87;;;8.20;99.90;;;;;;5090896;28;20171;-65
2021/12/28 00:35:23;;;;;;;3.88;0.88;;;8.20;99.90;;;;;;5090885;28;20163;-64
2021/12/28 00:37:49;;;;;;;1.25;1.15;;;8.20;99.90;;;;;;5090637;28;20286;-64
2021/12/28 00:40:14;;;;;;;3.22;1.42;;;8.20;99.90;;;;;;5090975;28;20529;-65
2021/12/28 00:42:40;;;;;;;1.37;1.07;;;8.30;99.90;;;;;;5089451;28;20180;-64
2021/12/28 00:45:06;;;;;;;4.77;0.90;;;8.30;99.90;;;;;;5090581;28;20204;-63
2021/12/28 00:47:32;;;;;;;1.08;1.08;;;8.40;99.90;;;;;;5090754;28;20197;-65
2021/12/28 00:49:58;;;;;;;1.13;0.63;;;8.40;99.90;;;;;;5090277;28;20532;-66
2021/12/28 00:52:23;;;;;;;1.30;0.77;;;8.40;99.90;;;;;;5089884;28;20221;-65
2021/12/28 00:54:49;;;;;;;2.00;0.90;;;8.40;99.90;;;;;;5089006;28;20179;-64
2021/12/28 00:57:15;;;;;;;4.53;1.37;;;8.40;99.90;;;;;;5090102;28;20215;-63
2021/12/28 00:59:40;;;;;;;0.70;0.70;;;8.40;99.90;;;;;;5090030;28;20270;-64
2021/12/28 01:02:06;;;;;;;1.57;1.30;;;8.40;99.90;;;;;;5089587;28;20194;-65
2021/12/28 01:04:32;;;;;;;0.90;0.90;;;8.30;99.90;;;;;;5089687;28;20203;-64
2021/12/28 01:06:58;;;;;;;3.50;1.00;;;8.30;99.90;;;;;;5089718;28;20191;-64
2021/12/28 01:09:30;;;;;;;2.03;1.50;;;8.20;99.90;;;;;;5088440;28;20172;-64
2021/12/28 01:11:59;;;;;;;2.03;0.90;;;8.10;99.90;;;;;;5089229;28;20164;-64
2021/12/28 01:14:27;;;;;;;1.25;0.80;;;8.10;99.90;;;;;;5089772;28;20166;-63
2021/12/28 01:16:52;;;;;;;0.98;0.98;;;8.00;99.90;;;;;;5075497;28;20705;-64
2021/12/28 01:19:18;;;;;;;0.83;0.83;;;8.00;99.90;;;;;;5076150;28;20187;-65
2021/12/28 01:21:44;;;;;;;0.70;0.70;;;8.00;99.90;;;;;;5075631;28;20234;-64
2021/12/28 01:24:10;;;;;;;1.00;0.90;;;8.10;99.90;;;;;;5075866;28;20205;-64
2021/12/28 01:26:36;;;;;;;8.60;2.40;;;8.10;99.90;;;;;;5074629;28;20219;-63
2021/12/28 01:29:02;;;;;;;1.40;0.87;;;8.10;99.90;;;;;;5075961;28;20406;-63
2021/12/28 01:31:28;;;;;;;9.73;1.10;;;8.20;99.90;;;;;;5075448;28;20176;-64
2021/12/28 01:33:53;;;;;;;1.53;0.63;;;8.20;99.90;;;;;;5076432;28;20411;-63
2021/12/28 01:36:19;;;;;;;2.20;1.57;;;8.20;99.90;;;;;;5075650;28;20196;-63
2021/12/28 01:38:44;;;;;;;2.00;0.93;;;8.20;99.90;;;;;;5075727;28;20182;-65
2021/12/28 01:41:10;;;;;;;1.80;0.70;;;8.20;99.90;;;;;;5075968;28;20206;-64
2021/12/28 01:43:40;;;;;;;0.90;0.90;;;8.20;99.90;;;;;;5075761;28;20206;-65
2021/12/28 01:46:07;;;;;;;3.05;0.80;;;8.20;99.90;;;;;;5075677;28;20164;-65
2021/12/28 01:48:38;;;;;;;1.33;1.20;;;8.10;99.90;;;;;;5075525;28;20240;-63
2021/12/28 01:51:11;;;;;;;0.80;0.80;;;8.10;99.90;;;;;;5075748;28;20162;-64
2021/12/28 01:53:37;;;;;;;1.05;0.68;;;8.10;99.90;;;;;;5075491;28;20565;-64
2021/12/28 01:56:12;;;;;;;0.60;0.60;;;8.10;99.90;;;;;;5075597;28;20250;-65
2021/12/28 01:58:39;;;;;;;2.25;0.77;;;8.10;99.90;;;;;;5070318;28;20173;-63
2021/12/28 02:01:06;;;;;;;0.35;0.32;;;8.10;99.90;;;;;;5055166;28;20508;-71
2021/12/28 02:03:34;;;;;;;0.57;0.57;;;8.00;99.90;;;;;;5054935;28;20657;-64
2021/12/28 02:06:00;;;;;;;0.77;0.77;;;8.00;99.90;;;;;;5055483;28;20169;-64
2021/12/28 02:08:25;;;;;;;0.57;0.57;;;8.10;99.90;;;;;;5055242;28;20169;-65
2021/12/28 02:10:53;;;;;;;0.73;0.73;;;8.00;99.90;;;;;;5055372;28;20661;-64
2021/12/28 02:13:20;;;;;;;0.80;0.80;;;8.00;99.90;;;;;;5054902;28;20169;-64
2021/12/28 02:15:46;;;;;;;2.40;2.30;;;8.00;99.90;;;;;;5055020;28;20179;-63
2021/12/28 02:18:16;;;;;;;1.47;0.90;;;7.90;99.90;;;;;;5054823;28;20617;-65
2021/12/28 02:20:42;;;;;;;0.60;0.60;;;7.90;99.90;;;;;;5053607;28;20419;-64
2021/12/28 02:23:08;;;;;;;0.82;0.82;;;7.90;99.90;;;;;;5054646;28;20173;-66
2021/12/28 02:25:35;;;;;;;1.27;1.10;;;7.90;99.90;;;;;;5055067;28;20180;-64
2021/12/28 02:28:03;;;;;;;1.27;1.20;;;7.80;99.90;;;;;;5053821;28;20402;-63
2021/12/28 02:30:28;;;;;;;0.90;0.90;;;7.70;99.90;;;;;;5054655;28;20166;-64
2021/12/28 02:32:54;;;;;;;5.40;2.30;;;7.70;99.90;;;;;;5054352;28;20574;-63
2021/12/28 02:35:23;;;;;;;2.00;1.13;;;7.60;99.90;;;;;;5055007;28;20187;-64
2021/12/28 02:37:50;;;;;;;3.00;0.70;;;7.60;99.90;;;;;;5053194;28;20211;-63
2021/12/28 02:40:20;;;;;;;0.75;0.75;;;7.60;99.90;;;;;;5054604;28;20180;-64
2021/12/28 02:42:46;;;;;;;1.05;0.90;;;7.50;99.90;;;;;;5054179;28;20594;-65
2021/12/28 02:45:18;;;;;;;2.03;1.52;;;7.50;99.90;;;;;;5056010;28;20238;-63
2021/12/28 02:47:45;;;;;;;2.35;1.30;;;7.50;99.90;;;;;;5055166;28;20196;-63
2021/12/28 02:50:21;;;;;;;0.55;0.55;;;7.50;99.90;;;;;;5054988;28;20535;-64
2021/12/28 02:52:47;;;;;;;0.95;0.93;;;7.50;99.90;;;;;;5053990;28;20164;-65
2021/12/28 02:55:16;;;;;;;0.95;0.95;;;7.40;99.90;;;;;;5054428;28;20176;-64
2021/12/28 02:57:57;;;;;;;0.57;0.57;;;7.40;99.90;;;;;;5054106;28;20200;-64
2021/12/28 03:00:30;;;;;;;1.58;0.93;;;7.30;99.90;;;;;;5073615;28;20196;-64
2021/12/28 03:02:56;;;;;;;1.08;0.77;;;7.30;99.90;;;;;;5073739;28;20177;-63
2021/12/28 03:05:22;;;;;;;2.83;0.73;;;7.20;99.90;;;;;;5073952;28;20616;-63
2021/12/28 03:07:48;;;;;;;0.93;0.90;;;7.20;99.90;;;;;;5074513;28;20430;-64
2021/12/28 03:10:14;;;;;;;1.33;1.23;;;7.10;99.90;;;;;;5074156;28;20167;-64
2021/12/28 03:12:39;;;;;;;1.63;0.93;;;7.10;99.90;;;;;;5073597;28;20196;-64
2021/12/28 03:15:06;;;;;;;12.50;1.47;;;7.20;99.90;;;;;;5073940;28;20577;-64
2021/12/28 03:17:31;;;;;;;0.60;0.60;;;7.20;99.90;;;;;;5073899;28;20184;-64
2021/12/28 03:19:57;;;;;;;1.80;0.90;;;7.20;99.90;;;;;;5073957;28;20278;-64
2021/12/28 03:22:23;;;;;;;1.10;1.10;;;7.20;99.90;;;;;;5073521;28;20604;-65
2021/12/28 03:24:48;;;;;;;1.23;1.23;;;7.20;99.90;;;;;;5073616;28;20207;-65
2021/12/28 03:27:14;;;;;;;1.10;1.10;;;7.20;99.90;;;;;;5073698;28;20230;-64
2021/12/28 03:29:39;;;;;;;2.67;1.17;;;7.20;99.90;;;;;;5073888;28;20254;-64
2021/12/28 03:32:05;;;;;;;3.80;0.83;;;7.20;99.90;;;;;;5073395;28;20163;-63
2021/12/28 03:34:31;;;;;;;5.20;0.80;;;7.20;99.90;;;;;;5073664;28;20303;-64
2021/12/28 03:36:57;;;;;;;5.40;1.27;;;7.30;99.90;;;;;;5073332;28;20924;-64
2021/12/28 03:39:22;;;;;;;1.23;1.13;;;7.40;99.90;;;;;;5073284;28;20176;-64
2021/12/28 03:41:48;;;;;;;4.87;0.80;;;7.50;99.90;;;;;;5073051;28;20177;-64
2021/12/28 03:44:14;;;;;;;2.83;1.23;;;7.50;99.90;;;;;;5073683;28;20238;-63
2021/12/28 03:46:40;;;;;;;1.05;0.50;;;7.50;99.90;;;;;;5072177;28;20215;-66
2021/12/28 03:49:06;;;;;;;1.90;1.03;;;7.60;99.90;;;;;;5073602;28;20265;-63
2021/12/28 03:51:32;;;;;;;1.23;0.80;;;7.60;99.90;;;;;;5072959;28;20172;-64
2021/12/28 03:53:58;;;;;;;3.05;0.88;;;7.70;99.90;;;;;;5073770;28;20180;-64
2021/12/28 03:56:23;;;;;;;1.47;0.97;;;7.60;99.90;;;;;;5073325;28;20535;-65
2021/12/28 03:58:49;;;;;;;1.70;1.10;;;7.60;99.90;;;;;;5065277;28;20469;-64
2021/12/28 04:01:20;;;;;;;1.07;0.70;;;7.60;99.90;;;;;;5053020;28;20262;-65
2021/12/28 04:03:46;;;;;;;1.00;1.00;;;7.60;99.90;;;;;;5053149;28;20482;-64
2021/12/28 04:06:11;;;;;;;3.50;0.97;;;7.60;99.90;;;;;;5053142;28;20192;-65
2021/12/28 04:08:40;;;;;;;0.70;0.70;;;7.70;99.90;;;;;;5053167;28;20176;-65
2021/12/28 04:13:49;;;;;;;2.05;1.15;;;7.70;99.90;;;;;;5053255;28;20592;-62
2021/12/28 04:16:16;;;;;;;8.18;1.15;;;7.80;99.90;;;;;;5053054;28;20559;-65
2021/12/28 04:18:41;;;;;;;1.35;1.23;;;7.80;99.90;;;;;;5053229;28;20203;-63
2021/12/28 04:21:08;;;;;;;0.97;0.87;;;7.80;99.90;;;;;;5051982;28;20251;-66
2021/12/28 04:23:35;;;;;;;2.05;1.95;;;7.90;99.90;;;;;;5053030;28;20249;-65
2021/12/28 04:26:01;;;;;;;5.45;1.38;;;7.80;99.90;;;;;;5052953;28;20171;-64
2021/12/28 04:28:26;;;;;;;3.22;1.48;;;7.80;99.90;;;;;;5053070;28;20169;-64
2021/12/28 04:30:53;;;;;;;1.77;0.87;;;7.80;99.90;;;;;;5052978;28;20177;-65
2021/12/28 04:33:19;;;;;;;1.35;1.30;;;7.80;99.90;;;;;;5052520;28;20192;-64
2021/12/28 04:35:44;;;;;;;0.70;0.60;;;7.80;99.90;;;;;;5053104;28;20200;-64
2021/12/28 04:38:10;;;;;;;1.20;0.83;;;7.80;99.90;;;;;;5052931;28;20614;-64
2021/12/28 04:40:36;;;;;;;1.03;1.03;;;7.80;99.90;;;;;;5052898;28;20422;-65
2021/12/28 04:43:01;;;;;;;8.73;1.00;;;7.80;99.90;;;;;;5052450;28;20252;-64
2021/12/28 04:45:27;;;;;;;3.23;1.33;;;7.70;99.90;;;;;;5052817;28;20728;-64
2021/12/28 04:47:53;;;;;;;1.60;0.87;;;7.70;99.90;;;;;;5052665;28;20186;-64
2021/12/28 04:50:19;;;;;;;2.03;1.50;;;7.60;99.90;;;;;;5054007;28;20166;-63
2021/12/28 04:52:45;;;;;;;0.87;0.87;;;7.60;99.90;;;;;;5056984;28;20438;-64
2021/12/28 04:55:15;;;;;;;5.60;1.50;;;7.50;99.90;;;;;;5056406;28;20177;-64
2021/12/28 04:57:43;;;;;;;1.85;1.45;;;7.50;99.90;;;;;;5056606;28;20459;-64
2021/12/28 05:00:19;;;;;;;4.10;2.25;;;7.50;99.90;;;;;;5073951;28;20171;-64
2021/12/28 05:02:45;;;;;;;0.80;0.80;;;7.40;99.90;;;;;;5076125;28;20242;-63
2021/12/28 05:05:12;;;;;;;3.97;1.10;;;7.40;99.90;;;;;;5076154;28;20795;-63
2021/12/28 05:07:38;;;;;;;3.22;0.68;;;7.40;99.90;;;;;;5076324;28;20316;-63
2021/12/28 05:10:05;;;;;;;2.00;0.90;;;7.30;99.90;;;;;;5076308;28;20562;-63
2021/12/28 05:12:31;;;;;;;1.05;0.70;;;7.30;99.90;;;;;;5075837;28;20245;-64
2021/12/28 05:14:59;;;;;;;2.00;1.08;;;7.30;99.90;;;;;;5076067;28;20185;-63
2021/12/28 05:17:27;;;;;;;2.78;1.65;;;7.20;99.90;;;;;;5075931;28;20199;-62
2021/12/28 05:19:53;;;;;;;0.60;0.60;;;7.20;99.90;;;;;;5076232;28;20202;-62
2021/12/28 05:22:18;;;;;;;1.90;1.23;;;7.20;99.90;;;;;;5075744;28;20646;-62
2021/12/28 05:24:44;;;;;;;1.20;1.10;;;7.10;99.90;;;;;;5075998;28;20199;-62
2021/12/28 05:27:10;;;;;;;1.03;0.90;;;7.10;99.90;;;;;;5074687;28;20199;-63
2021/12/28 05:29:35;;;;;;;0.93;0.90;;;7.10;99.90;;;;;;5075903;28;20171;-62
2021/12/28 05:32:01;;;;;;;1.73;1.03;;;7.10;99.90;;;;;;5075537;28;20175;-62
2021/12/28 05:34:27;;;;;;;2.70;1.17;;;7.20;99.90;;;;;;5074810;28;20178;-62
2021/12/28 05:36:52;;;;;;;0.97;0.93;;;7.20;99.90;;;;;;5075864;28;20577;-62
2021/12/28 05:39:18;;;;;;;2.90;1.37;;;7.10;99.90;;;;;;5075909;28;20171;-62
2021/12/28 05:41:43;;;;;;;2.50;0.80;;;7.10;99.90;;;;;;5075434;28;20178;-63
2021/12/28 05:44:09;;;;;;;3.13;1.50;;;7.10;99.90;;;;;;5075837;28;20279;-63
2021/12/28 05:46:35;;;;;;;1.90;0.77;;;7.10;99.90;;;;;;5075570;28;20191;-63
2021/12/28 05:49:01;;;;;;;4.03;1.60;;;7.10;99.90;;;;;;5075601;28;20214;-63
2021/12/28 05:51:26;;;;;;;10.23;1.50;;;7.10;99.90;;;;;;5075305;28;20411;-63
2021/12/28 05:53:52;;;;;;;4.17;1.70;;;7.20;99.90;;;;;;5075489;28;20172;-62
2021/12/28 05:56:18;;;;;;;3.93;2.33;;;7.20;99.90;;;;;;5074123;28;20255;-62
2021/12/28 05:58:43;;;;;;;1.50;1.40;;;7.20;99.90;;;;;;5069657;28;20176;-63
2021/12/28 06:01:09;;;;;;;1.60;1.30;;;7.20;99.90;;;;;;5054984;28;20182;-63
2021/12/28 06:03:35;;;;;;;1.20;1.10;;;7.30;99.90;;;;;;5054970;28;20208;-63
2021/12/28 06:06:00;;;;;;;1.23;0.87;;;7.20;99.90;;;;;;5055258;28;20168;-62
2021/12/28 06:08:26;;;;;;;1.27;1.20;;;7.30;99.90;;;;;;5055334;28;20632;-63
2021/12/28 06:10:52;;;;;;;1.00;1.00;;;7.30;99.90;;;;;;5055320;28;20223;-63
2021/12/28 06:13:18;;;;;;;0.87;0.87;;;7.30;99.90;;;;;;5054631;28;20403;-63
2021/12/28 06:15:44;;;;;;;1.08;1.08;;;7.40;99.90;;;;;;5054975;28;20165;-62
2021/12/28 06:18:09;;;;;;;1.03;0.97;;;7.50;99.90;;;;;;5054914;28;20189;-62
2021/12/28 06:20:35;;;;;;;1.27;1.17;;;7.50;99.90;;;;;;5053625;28;20325;-63
2021/12/28 06:23:00;;;;;;;1.27;1.00;;;7.60;99.90;;;;;;5054509;28;20172;-63
2021/12/28 06:25:26;;;;;;;1.30;1.20;;;7.70;99.90;;;;;;5054818;28;20205;-63
2021/12/28 06:27:52;;;;;;;3.40;1.37;;;7.80;99.90;;;;;;5054673;28;20223;-63
2021/12/28 06:30:18;;;;;;;0.70;0.70;;;7.90;99.90;;;;;;5055066;28;20167;-62
2021/12/28 06:32:43;;;;;;;3.80;1.33;;;8.00;99.90;;;;;;5054494;28;20582;-63
2021/12/28 06:35:10;;;;;;;0.63;0.63;;;8.10;99.90;;;;;;5054639;28;20169;-63
2021/12/28 06:37:36;;;;;;;1.00;1.00;;;8.10;99.90;;;;;;5054590;28;20194;-62
2021/12/28 06:40:02;;;;;;;3.70;0.93;;;8.20;99.90;;;;;;5054562;28;20672;-63
2021/12/28 06:42:28;;;;;;;0.65;0.65;;;8.20;99.90;;;;;;5054270;28;20207;-62
2021/12/28 06:44:54;;;;;;;0.90;0.90;;;8.20;99.90;;;;;;5054417;28;20625;-63
2021/12/28 06:47:20;;;;;;;1.30;1.20;;;8.30;99.90;;;;;;5054490;28;20193;-65
2021/12/28 06:49:45;;;;;;;0.98;0.98;;;8.30;99.90;;;;;;5054359;28;20539;-62
2021/12/28 06:52:12;;;;;;;0.93;0.93;;;8.30;99.90;;;;;;5053891;28;20166;-62
2021/12/28 06:54:39;;;;;;;2.20;0.90;;;8.30;99.90;;;;;;5054440;28;20208;-65
2021/12/28 06:57:10;;;;;;;0.90;0.90;;;8.30;99.90;;;;;;5054360;28;20190;-63
2021/12/28 06:59:38;;;;;;;0.93;0.93;;;8.30;99.90;;;;;;5067135;28;20179;-63
2021/12/28 07:02:06;;;;;;;1.50;1.30;;;8.30;99.90;;;;;;5073625;28;20169;-64
2021/12/28 07:04:33;;;;;;;5.88;1.00;;;8.40;99.90;;;;;;5072502;28;20220;-63
2021/12/28 07:06:59;;;;;;;1.73;0.77;;;8.40;99.90;;;;;;5073908;28;20181;-63
2021/12/28 07:09:24;;;;;;;0.90;0.90;;;8.40;99.90;;;;;;5074002;28;20176;-63
2021/12/28 07:11:50;;;;;;;0.70;0.70;;;8.40;99.90;;;;;;5073471;28;20175;-63
2021/12/28 07:14:23;;;;;;;1.07;0.60;;;8.50;99.90;;;;;;5073081;28;20177;-63
2021/12/28 07:16:49;;;;;;;1.38;0.73;;;8.60;99.90;;;;;;5073759;28;20204;-63
2021/12/28 07:19:14;;;;;;;0.93;0.93;;;8.70;99.90;;;;;;5073875;28;20169;-63
2021/12/28 07:21:41;;;;;;;0.70;0.60;;;8.70;99.90;;;;;;5073205;28;20177;-63
2021/12/28 07:24:08;;;;;;;0.63;0.63;;;8.70;99.90;;;;;;5073517;28;20202;-64
2021/12/28 07:26:35;;;;;;;0.98;0.50;;;8.70;99.90;;;;;;5073498;28;20287;-63
2021/12/28 07:29:01;;;;;;;0.40;0.30;;;8.70;99.90;;;;;;5072750;28;20173;-63
2021/12/28 07:31:27;;;;;;;0.70;0.70;;;8.70;99.90;;;;;;5073392;28;20157;-64
2021/12/28 07:33:53;;;;;;;0.30;0.30;;;8.70;99.90;;;;;;5073532;28;20176;-63
2021/12/28 07:36:19;;;;;;;0.50;0.50;;;8.80;99.90;;;;;;5073658;28;20202;-64
2021/12/28 07:38:45;;;;;;;1.60;0.50;;;8.80;99.90;;;;;;5073904;28;20171;-64
2021/12/28 07:41:10;;;;;;;0.70;0.70;;;8.90;99.90;;;;;;5073366;28;20175;-63
2021/12/28 07:43:36;;;;;;;0.40;0.40;;;9.00;99.90;;;;;;5073337;28;20680;-64
2021/12/28 07:46:02;;;;;;;1.53;1.43;;;9.00;99.90;;;;;;5073533;28;20176;-63
2021/12/28 07:48:27;;;;;;;1.73;0.80;;;9.10;99.90;;;;;;5073258;28;20169;-64
2021/12/28 07:50:53;;;;;;;0.50;0.50;;;9.10;99.90;;;;;;5073219;28;20245;-64
2021/12/28 07:53:19;;;;;;;0.50;0.50;;;9.20;99.90;;;;;;5072891;28;20164;-63
2021/12/28 07:55:45;;;;;;;0.30;0.30;;;9.30;99.90;;;;;;5073345;28;20171;-64
2021/12/28 07:58:10;;;;;;;0.60;0.40;;;9.40;99.90;;;;;;5072284;28;20200;-63
2021/12/28 08:00:36;;;;;;;0.40;0.40;;;9.50;99.90;;;;;;5052948;28;20174;-63
2021/12/28 08:03:04;;;;;;;0.43;0.43;;;9.50;99.90;;;;;;5052818;28;20165;-65
2021/12/28 08:05:31;;;;;;;0.55;0.55;;;9.60;99.90;;;;;;5053140;28;20225;-64
2021/12/28 08:07:58;;;;;;;0.40;0.40;;;9.60;99.90;;;;;;5051788;28;20292;-64
2021/12/28 08:10:23;;;;;;;0.70;0.70;;;9.70;99.90;;;;;;5053033;28;20201;-64
2021/12/28 08:12:51;;;;;;;2.10;0.50;;;9.70;99.90;;;;;;5052734;28;20260;-65
2021/12/28 08:15:17;;;;;;;1.38;1.27;;;9.80;99.90;;;;;;5053213;28;20467;-65
2021/12/28 08:17:43;;;;;;;1.07;0.90;;;9.90;99.90;;;;;;5053064;28;20603;-64
2021/12/28 08:20:11;;;;;;;0.60;0.60;;;9.90;99.90;;;;;;5053166;28;20509;-64
2021/12/28 08:22:38;;;;;;;0.70;0.60;;;9.90;99.90;;;;;;5052700;28;20390;-64
2021/12/28 08:25:05;;;;;;;0.73;0.68;;;10.00;99.90;;;;;;5061156;28;20246;-64
2021/12/28 08:27:31;;;;;;;0.30;0.30;;;10.00;99.90;;;;;;5076875;28;20189;-64
2021/12/28 08:29:56;;;;;;;0.50;0.50;;;10.00;99.90;;;;;;5076496;28;20527;-63
2021/12/28 08:32:22;;;;;;;0.60;0.60;;;10.00;99.90;;;;;;5076155;28;20173;-64
2021/12/28 08:34:48;;;;;;;0.70;0.70;;;9.90;99.90;;;;;;5076692;28;20403;-64
2021/12/28 08:37:14;;;;;;;0.30;0.30;;;9.90;99.90;;;;;;5076513;28;20415;-64
2021/12/28 08:39:40;;;;;;;0.40;0.40;;;9.80;99.90;;;;;;5075103;28;20173;-64
2021/12/28 08:42:05;;;;;;;0.40;0.40;;;9.90;99.90;;;;;;5076364;28;20169;-64
2021/12/28 08:44:31;;;;;;;0.50;0.50;;;9.90;99.90;;;;;;5076292;28;20215;-64
2021/12/28 08:46:57;;;;;;;0.40;0.40;;;9.90;99.90;;;;;;5074359;28;20212;-65
2021/12/28 08:49:24;;;;;;;0.50;0.50;;;9.90;99.90;;;;;;5074464;28;20715;-63
2021/12/28 08:51:50;;;;;;;0.40;0.40;;;10.00;99.90;;;;;;5074618;28;20195;-66
2021/12/28 08:54:15;;;;;;;1.08;0.98;;;10.00;99.90;;;;;;5075405;28;20165;-66
2021/12/28 08:56:41;;;;;;;0.60;0.60;;;10.10;99.90;;;;;;5075045;28;20242;-67
2021/12/28 08:59:07;;;;;;;0.43;0.43;;;10.10;99.90;;;;;;5066574;28;20173;-65
2021/12/28 09:01:32;;;;;;;0.40;0.40;;;10.20;99.90;;;;;;5055899;28;20570;-64
2021/12/28 09:03:58;;;;;;;2.30;0.47;;;10.20;99.90;;;;;;5055789;28;20604;-65
2021/12/28 09:06:24;;;;;;;0.47;0.47;;;10.30;99.90;;;;;;5060230;28;20630;-63
2021/12/28 09:08:50;;;;;;;0.30;0.30;;;10.40;99.90;;;;;;5073980;28;20531;-63
2021/12/28 09:11:15;;;;;;;0.50;0.50;;;10.60;99.90;;;;;;5075638;28;20187;-64
2021/12/28 09:13:41;;;;;;;0.30;0.30;;;10.70;99.90;;;;;;5075992;28;20172;-65
2021/12/28 09:16:07;;;;;;;0.53;0.53;;;10.80;99.90;;;;;;5075803;28;20173;-64
2021/12/28 09:18:32;;;;;;;0.60;0.60;;;10.90;99.90;;;;;;5075915;28;20575;-64
2021/12/28 09:20:58;;;;;;;0.30;0.30;;;11.00;99.90;;;;;;5075968;28;20328;-63
2021/12/28 09:23:24;;;;;;;0.53;0.53;;;11.10;99.90;;;;;;5075619;28;20243;-61
2021/12/28 09:25:50;;;;;;;0.30;0.30;;;11.10;99.90;;;;;;5075695;28;20411;-61
2021/12/28 09:28:16;;;;;;;0.50;0.50;;;11.10;99.90;;;;;;5068916;28;20766;-63
2021/12/28 09:30:43;;;;;;;1.07;0.60;;;11.10;99.90;;;;;;5070922;28;20421;-63
2021/12/28 09:33:10;;;;;;;1.90;1.08;;;11.10;99.90;;;;;;5075205;28;20184;-62
2021/12/28 09:35:36;;;;;;;0.40;0.40;;;11.20;99.90;;;;;;5075210;28;20173;-61
2021/12/28 09:38:03;;;;;;;0.50;0.45;;;11.20;99.90;;;;;;5075101;28;20189;-62
2021/12/28 09:40:30;;;;;;;0.43;0.40;;;11.30;99.90;;;;;;5075658;28;20181;-62
2021/12/28 09:42:56;;;;;;;3.03;2.22;;;11.30;99.90;;;;;;5075349;28;20248;-61
2021/12/28 09:45:22;;;;;;;0.60;0.60;;;11.40;99.90;;;;;;5075271;28;20235;-62
2021/12/28 09:47:48;;;;;;;0.50;0.50;;;11.40;99.90;;;;;;5075184;28;20664;-64
2021/12/28 09:50:16;;;;;;;0.73;0.60;;;11.50;99.90;;;;;;5066645;28;20186;-62
2021/12/28 09:52:44;;;;;;;0.95;0.82;;;11.60;99.90;;;;;;5053887;28;20185;-64
2021/12/28 09:55:12;;;;;;;0.57;0.57;;;11.60;99.90;;;;;;5054669;28;20536;-65
2021/12/28 09:57:38;;;;;;;0.63;0.63;;;11.70;99.90;;;;;;5053134;28;20228;-66
2021/12/28 10:00:07;;;;;;;0.53;0.40;;;11.70;99.90;;;;;;5069881;28;20531;-65
2021/12/28 10:02:35;;;;;;;1.02;1.00;;;11.60;99.90;;;;;;5072627;28;20166;-65
2021/12/28 10:05:06;;;;;;;0.40;0.40;;;11.70;99.90;;;;;;5072693;28;20237;-64
2021/12/28 10:07:34;;;;;;;1.05;0.52;;;11.70;99.90;;;;;;5073087;28;20189;-64
2021/12/28 10:10:00;;;;;;;0.60;0.43;;;11.70;99.90;;;;;;5073021;28;20172;-64
2021/12/28 10:12:29;;;;;;;0.40;0.40;;;11.80;99.90;;;;;;5074138;28;20688;-64
2021/12/28 10:14:57;;;;;;;0.60;0.60;;;11.80;99.90;;;;;;5075022;28;20492;-64
2021/12/28 10:17:25;;;;;;;1.70;1.13;;;11.80;99.90;;;;;;5074925;28;20649;-64
2021/12/28 10:19:51;;;;;;;0.50;0.50;;;11.90;99.90;;;;;;5073507;28;20442;-64
2021/12/28 10:22:31;;;;;;;0.40;0.40;;;11.90;99.90;;;;;;5074317;28;20559;-65
2021/12/28 10:24:57;;;;;;;0.50;0.40;;;11.90;99.90;;;;;;5074732;28;20456;-64
2021/12/28 10:27:26;;;;;;;0.50;0.40;;;12.00;99.90;;;;;;5074502;28;20257;-63
2021/12/28 10:29:53;;;;;;;1.03;0.47;;;12.10;99.90;;;;;;5073936;28;20640;-64
2021/12/28 10:32:28;;;;;;;0.40;0.40;;;12.30;99.90;;;;;;5073269;28;20475;-64
2021/12/28 10:34:59;;;;;;;0.40;0.40;;;12.50;99.90;;;;;;5073505;28;20506;-64
2021/12/28 10:37:28;;;;;;;4.83;0.50;;;12.60;99.90;;;;;;5073332;28;20495;-64
2021/12/28 10:39:58;;;;;;;0.63;0.60;;;12.80;99.90;;;;;;5073398;28;20441;-65
2021/12/28 10:42:40;;;;;;;0.60;0.47;;;12.80;99.90;;;;;;5073227;28;20754;-65
2021/12/28 10:45:08;;;;;;;2.00;0.80;;;12.90;99.90;;;;;;5073856;28;20437;-64
2021/12/28 10:47:34;;;;;;;0.70;0.53;;;13.00;99.90;;;;;;5073657;28;20473;-64
2021/12/28 10:50:08;;;;;;;0.50;0.50;;;13.00;99.90;;;;;;5074088;28;20380;-65
2021/12/28 10:52:38;;;;;;;0.53;0.50;;;12.90;99.90;;;;;;5073808;28;20406;-64
2021/12/28 10:55:37;;;;;;;1.10;1.00;;;12.90;99.90;;;;;;5074124;28;20410;-65
2021/12/28 10:58:05;;;;;;;0.93;0.60;;;12.90;99.90;;;;;;5051384;28;20428;-65
2021/12/28 11:00:37;;;;;;;0.70;0.67;;;12.90;99.90;;;;;;5054676;28;20997;-64
2021/12/28 11:03:14;;;;;;;0.60;0.50;;;13.10;99.90;;;;;;5053606;28;20418;-65
2021/12/28 11:05:42;;;;;;;0.70;0.70;;;13.20;99.90;;;;;;5054064;28;20535;-64
2021/12/28 11:08:08;;;;;;;0.77;0.70;;;13.20;99.90;;;;;;5053793;28;20426;-64
2021/12/28 11:10:39;;;;;;;0.40;0.40;;;13.20;99.90;;;;;;5053815;28;20440;-64
2021/12/28 11:13:04;;;;;;;0.70;0.50;;;13.30;99.90;;;;;;5053389;28;20478;-63
2021/12/28 11:15:37;;;;;;;1.00;1.00;;;13.30;99.90;;;;;;5054036;28;20490;-65
2021/12/28 11:18:31;;;;;;;4.43;0.50;;;13.30;99.90;;;;;;5053816;28;20205;-63
2021/12/28 11:20:59;;;;;;;0.30;0.30;;;13.40;99.90;;;;;;5052416;28;20588;-65
2021/12/28 11:23:28;;;;;;;0.50;0.50;;;13.40;99.90;;;;;;5053462;28;20393;-65
2021/12/28 11:26:20;;;;;;;0.40;0.40;;;13.50;99.90;;;;;;5053181;28;20505;-64
2021/12/28 11:29:15;;;;;;;0.40;0.33;;;13.50;99.90;;;;;;5051458;28;20417;-64
2021/12/28 11:31:42;;;;;;;0.87;0.47;;;13.60;99.90;;;;;;5051992;28;20431;-65
2021/12/28 11:34:12;;;;;;;0.70;0.63;;;13.60;99.90;;;;;;5053225;28;20423;-65
2021/12/28 11:36:54;;;;;;;0.57;0.57;;;13.50;99.90;;;;;;5051918;28;20946;-64
2021/12/28 11:39:24;;;;;;;0.33;0.33;;;13.50;99.90;;;;;;5035403;28;20419;-64
2021/12/28 11:41:50;;;;;;;0.40;0.40;;;13.50;99.90;;;;;;5053026;28;20389;-65
2021/12/28 11:44:18;;;;;;;0.50;0.50;;;13.50;99.90;;;;;;5053202;28;20421;-64
2021/12/28 11:46:44;;;;;;;0.77;0.67;;;13.60;99.90;;;;;;5052928;28;20477;-64
2021/12/28 11:49:12;;;;;;;0.60;0.53;;;13.60;99.90;;;;;;5053495;28;20782;-63
2021/12/28 11:51:38;;;;;;;1.37;0.73;;;13.60;99.90;;;;;;5052770;28;20417;-65
2021/12/28 11:54:07;;;;;;;0.60;0.37;;;13.70;99.90;;;;;;5052822;28;20382;-65
2021/12/28 11:56:39;;;;;;;0.93;0.93;;;13.80;99.90;;;;;;5051729;28;20448;-65
2021/12/28 11:59:15;;;;;;;0.40;0.40;;;13.80;99.90;;;;;;5062008;28;20783;-65
2021/12/28 12:01:54;;;;;;;1.20;1.20;;;13.80;99.90;;;;;;5072596;28;20475;-64
2021/12/28 12:04:46;;;;;;;1.00;0.70;;;13.80;99.90;;;;;;5073125;28;20468;-65
2021/12/28 12:07:18;;;;;;;0.50;0.50;;;13.80;99.90;;;;;;5071759;28;20568;-64
2021/12/28 12:09:49;;;;;;;0.83;0.50;;;13.80;99.90;;;;;;5073088;28;20742;-64
2021/12/28 12:12:25;;;;;;;0.40;0.40;;;13.70;99.90;;;;;;5072706;28;20419;-64
2021/12/28 12:14:50;;;;;;;0.50;0.50;;;13.70;99.90;;;;;;5072952;28;20452;-64
2021/12/28 12:17:28;;;;;;;0.83;0.47;;;13.60;99.90;;;;;;5072529;28;20462;-63
2021/12/28 12:19:56;;;;;;;0.40;0.40;;;13.50;99.90;;;;;;5071076;28;20176;-65
2021/12/28 12:22:43;;;;;;;0.50;0.50;;;13.50;99.90;;;;;;5070656;28;20404;-65
2021/12/28 12:25:14;;;;;;;0.63;0.63;;;13.50;99.90;;;;;;5070772;28;20548;-64
2021/12/28 12:28:04;;;;;;;1.70;0.90;;;13.40;99.90;;;;;;5070589;28;20775;-64
2021/12/28 12:30:32;;;;;;;1.10;1.10;;;13.40;99.90;;;;;;5070665;28;20410;-65
2021/12/28 12:33:11;;;;;;;0.97;0.77;;;13.30;99.90;;;;;;5070365;28;20384;-65
2021/12/28 12:35:46;;;;;;;0.50;0.50;;;13.20;99.90;;;;;;5070707;28;20424;-65
2021/12/28 12:38:14;;;;;;;0.90;0.77;;;13.10;99.90;;;;;;5071195;28;20902;-65
2021/12/28 12:40:59;;;;;;;0.70;0.63;;;13.00;99.90;;;;;;5072468;28;20416;-65
2021/12/28 12:43:38;;;;;;;0.40;0.40;;;12.90;99.90;;;;;;5071159;28;20931;-63
2021/12/28 12:46:05;;;;;;;0.50;0.50;;;12.80;99.90;;;;;;5072476;28;20463;-62
2021/12/28 12:48:31;;;;;;;0.40;0.40;;;12.80;99.90;;;;;;5072289;28;20922;-61
2021/12/28 12:51:22;;;;;;;0.60;0.60;;;12.70;99.90;;;;;;5072523;28;20497;-63
2021/12/28 12:53:54;;;;;;;0.83;0.70;;;12.70;99.90;;;;;;5072795;28;20462;-64
2021/12/28 12:56:29;;;;;;;0.80;0.50;;;12.70;99.90;;;;;;5072480;28;20404;-62
2021/12/28 12:58:59;;;;;;;0.60;0.40;;;12.60;99.90;;;;;;5062411;28;20447;-64